Tiempo atmosférico en la estación meteorológica de Cabo Peñas, Asturias (100 m.)



Fecha
DESCASC
Temp. máxima en grados centígrados (hora)
DESCASC
Temp. mínima en grados centígrados (hora)
DESCASC
Temp. media en grados centígrados
DESCASC
Racha de viento máxima en m/sg (hora)
DESCASC
Velocidad máxima media en intervalos de 10 minutos(hora)
DESCASC
Precipitaciones diarias en mm
DESCASC
Precipitaciones de 00:00 a 06:00 en mm
DESCASC
Precipitaciones de 06:00 a 12:00 en mm
DESCASC
Precipitaciones de 12:00 a 18:00 en mm
DESCASC
Precipitaciones de 18:00 a 24:00 en mm
DESCASC
22-11-2020 14.5 (14:00) 10.1 (08:00) 12.3 7.22 (00:20) 5.28 (00:30) 0 0 0 0 0
21-11-2020 13.7 (14:30) 10.5 (05:10) 12.1 14.72 (13:50) 10 (13:50) 0 0 0 0 0
20-11-2020 14.8 (13:10) 11.1 (09:10) 13 14.72 (18:20) 10 (23:59) 0 0 0 0 0
19-11-2020 15.6 (00:10) 11.2 (00:00) 13.4 9.44 (17:10) 5.83 (20:10) 0.1 0.1 0 0 0
18-11-2020 20.9 (12:40) 14.3 (00:00) 17.6 8.89 (23:10) 5.83 (23:10) 0 0 0 0 0
17-11-2020 16.2 (23:59) 10.2 (00:00) 13.2 7.5 (12:50) 5.83 (13:00) 0 0 0 0 0
16-11-2020 15.5 (15:20) 10.9 (00:00) 13.2 10.83 (03:20) 5.56 (03:20) 0 0 0 0 0
15-11-2020 20.6 (05:30) 12.4 (00:00) 16.5 19.72 (14:00) 11.39 (10:30) 4 0 0 4 0
14-11-2020 21 (13:50) 12.9 (00:00) 16.9 6.39 (16:30) 5.28 (16:30) 0 0 0 0 0
13-11-2020 18.5 (13:00) 13.6 (00:00) 16.1 7.5 (22:20) 5.83 (20:30) 0 0 0 0 0
12-11-2020 17.5 (13:10) 13.6 (00:00) 15.6 7.5 (14:30) 5.28 (13:40) 0 0 0 0 0
11-11-2020 18.8 (13:30) 11.2 (00:00) 15 5.28 (21:40) 3.61 (23:20) 0 0 0 0 0
10-11-2020 15.5 (15:40) 11.9 (00:00) 13.7 6.39 (20:40) 4.72 (20:40) 0 0 0 0 0
09-11-2020 17.3 (14:30) 13.4 (00:00) 15.3 5.83 (17:30) 3.89 (09:20) 3.3 0 0.4 0.6 2.3
08-11-2020 19.7 (11:40) 14.4 (00:00) 17.1 10.28 (11:50) 6.11 (10:40) 0 0 0 0 0
07-11-2020 18.5 (13:40) 13.7 (00:00) 16.1 13.61 (00:10) 8.33 (00:20) 0 0 0 0 0
06-11-2020 22.2 (12:20) 12.6 (00:00) 17.4 16.67 (22:10) 11.39 (22:10) 1.7 0 0 0 1.7
05-11-2020 14.7 (18:50) 11.9 (00:00) 13.3 22.22 (11:30) 12.78 (02:50) 0.1 0.1 0 0 0
04-11-2020 13.3 (19:40) 8.1 (00:00) 10.7 21.39 (20:00) 12.5 (23:00) 7.3 4.5 0 1.2 1.6
03-11-2020 14 (00:20) 8.9 (00:00) 11.4 11.94 (05:10) 7.5 (05:20) 5.9 0.7 5.2 0 0
02-11-2020 20.6 (10:10) 11.9 (00:00) 16.3 17.78 (10:20) 10.28 (10:30) 3.7 0 0.1 3.1 0.5
01-11-2020 21.8 (06:40) 18.6 (00:00) 20.2 7.78 (02:30) 5.83 (02:30) 0 0 0 0 0
31-10-2020 23.4 (14:50) 13.2 (00:00) 18.3 6.67 (02:40) 5.28 (02:50) 0 0 0 0 0
30-10-2020 17.2 (11:20) 11.9 (00:00) 14.6 10.56 (22:30) 7.5 (22:00) 0 0 0 0 0
29-10-2020 16.6 (11:40) 11.7 (00:00) 14.2 6.67 (03:00) 5 (23:30) 0 0 0 0 0
28-10-2020 18.7 (12:10) 13.4 (00:00) 16.1 14.17 (00:20) 8.89 (00:10) 0 0 0 0 0
27-10-2020 20.3 (14:30) 12.9 (00:00) 16.6 19.72 (18:30) 12.22 (18:30) 0.2 0.1 0.1 0 0
26-10-2020 14.9 (15:10) 10.3 (00:00) 12.6 24.17 (17:20) 11.11 (15:40) 0 0 0 0 0

Gráficas

Temp. máximas Temp. mínimas Temp. medias Precipitaciones Rachas de viento máximas Velocidades máximas media en intervalos de 10 minutos

Datos horarios

Fecha y hora oficial Temperatura (ºC) Velocidad del viento (km/h) Dirección del viento Racha (km/h) Dirección de racha Precipitación (mm) Presión (hPa) Tendencia (hPa) Humedad (%)
2020-11-24 23:00:00 15.2 6 Sudeste 25 Sudeste 0 -- -- 59
2020-11-24 22:00:00 13.8 9 Sur 23 Sudoeste 0 -- -- 64
2020-11-24 21:00:00 14.5 8 Sur 23 Sudeste 0 -- -- 63
2020-11-24 20:00:00 14.2 6 Sudeste 20 Sudeste 0 -- -- 64
2020-11-24 19:00:00 14.4 7 Sudeste 28 Sudeste 0 -- -- 65
2020-11-24 18:00:00 14.2 17 Sudeste 26 Sudeste 0 -- -- 75
2020-11-24 17:00:00 15.1 13 Sudeste 16 Sudeste 0 -- -- 66
2020-11-24 16:00:00 16.2 5 Sudeste 11 Oeste 0 -- -- 64
2020-11-24 15:00:00 17.2 5 Sudoeste 15 Sur 0 -- -- 55
2020-11-24 14:00:00 16.4 5 Sur 19 Sur 0 -- -- 63
2020-11-24 13:00:00 15.2 5 Sur 18 Sur 0 -- -- 73
2020-11-24 12:00:00 14.7 10 Sudoeste 15 Sur 0 -- -- 71
2020-11-24 11:00:00 13.4 6 Sur 16 Sudoeste 0 -- -- 84
2020-11-24 10:00:00 12.8 13 Sudoeste 19 Sudoeste 0 -- -- 84
2020-11-24 09:00:00 11.8 14 Sudoeste 24 Oeste 0 -- -- 90
2020-11-24 08:00:00 11.9 18 Oeste 25 Oeste 0 -- -- 88
2020-11-24 07:00:00 12.2 16 Oeste 24 Oeste 0 -- -- 77
2020-11-24 06:00:00 11.6 15 Sudoeste 18 Sudoeste 0 -- -- 77
2020-11-24 05:00:00 11.3 14 Sudoeste 16 Sudoeste 0 -- -- 81
2020-11-24 04:00:00 11 13 Sudoeste 16 Sudoeste 0 -- -- 91
2020-11-24 03:00:00 10.6 7 Sudoeste 9 Oeste 0 -- -- 91
2020-11-24 02:00:00 11.3 0 Calma 7 Sudeste 0 -- -- 92
2020-11-24 01:00:00 11.5 5 Sur 19 Sudeste 0 -- -- 90
2020-11-24 00:00:00 12.1 18 Sudeste 22 Sudeste 0 -- -- 90
2020-11-23 23:00:00 12.1 17 Sudeste 23 Sudeste 0 -- -- 92
2020-11-23 22:00:00 12 15 Sudeste 23 Sudeste 0 -- -- 91
2020-11-23 21:00:00 13.1 17 Sudeste 37 Este 0 -- -- 90
2020-11-23 20:00:00 13.4 24 Este 37 Este 0 -- -- 88
2020-11-23 19:00:00 13.2 23 Este 35 Este 0 -- -- 84
2020-11-23 18:00:00 13.1 20 Este 30 Este 0 -- -- 83
2020-11-23 17:00:00 13.8 19 Este 29 Este 0 -- -- 85
2020-11-23 16:00:00 13.3 17 Este 24 Este 0 -- -- 90
2020-11-23 15:00:00 14.1 15 Este 22 Este 0 -- -- 91
2020-11-23 14:00:00 13.6 13 Este 19 Este 0 -- -- 92
2020-11-23 13:00:00 13 14 Este 21 Sudeste 0 -- -- 92
2020-11-23 12:00:00 13.4 15 Este 22 Sudeste 0 -- -- 90
2020-11-23 11:00:00 13.1 14 Sudeste 25 Sudeste 0 -- -- 91
2020-11-23 10:00:00 12.2 17 Sudeste 23 Sudeste 0 -- -- 90
2020-11-23 09:00:00 11.5 13 Sudeste 18 Sudeste 0 -- -- 91
2020-11-23 08:00:00 11.4 14 Sudeste 19 Sudeste 0 -- -- 96
2020-11-23 07:00:00 11.1 14 Sudeste 19 Sudeste 0 -- -- 94
2020-11-23 06:00:00 11.6 12 Sudeste 17 Sudeste 0 -- -- 93
2020-11-23 05:00:00 11 12 Sudeste 18 Sudeste 0 -- -- 95
2020-11-23 04:00:00 12.1 14 Sudeste 18 Sudeste 0 -- -- 95
2020-11-23 03:00:00 11.7 10 Sudeste 15 Sudeste 0 -- -- 96
2020-11-23 02:00:00 12.4 5 Sudeste 6 Sudeste 0 -- -- 97
2020-11-23 01:00:00 12.4 3 Este 9 Sudeste 0 -- -- 97
2020-11-23 00:00:00 12.4 3 Sudeste 9 Sudeste 0 -- -- 97
2020-11-22 23:00:00 12.6 8 Sudeste 10 Sudeste 0 -- -- 97
2020-11-22 22:00:00 12.9 5 Sudeste 9 Sudeste 0 -- -- 97
2020-11-22 21:00:00 12.8 6 Sudeste 9 Sudeste 0 -- -- 96
2020-11-22 20:00:00 12.6 5 Sudeste 12 Sudeste 0 -- -- 96
2020-11-22 19:00:00 12.3 9 Sudeste 10 Sudeste 0 -- -- 96
2020-11-22 18:00:00 12.4 8 Sudeste 13 Sudeste 0 -- -- 96
2020-11-22 17:00:00 13 9 Sudeste 13 Sudeste 0 -- -- 94
2020-11-22 16:00:00 13.7 9 Este 14 Sudeste 0 -- -- 93
2020-11-22 15:00:00 13.8 9 Este 15 Este 0 -- -- 92
2020-11-22 14:00:00 14.5 11 Este 16 Sudeste 0 -- -- 88
2020-11-22 13:00:00 13.9 13 Sudeste 18 Sudeste 0 -- -- 79
2020-11-22 12:00:00 12.5 7 Este 11 Este 0 -- -- 91
2020-11-22 11:00:00 12.7 3 Nordeste 7 Este 0 -- -- 91
2020-11-22 10:00:00 13 3 Este 7 Este 0 -- -- 93
2020-11-22 09:00:00 11.8 0 Calma 4 Este 0 -- -- 96
2020-11-22 08:00:00 10.9 0 Calma 3 Nordeste 0 -- -- 94
2020-11-22 07:00:00 10.9 0 Calma 3 Sudeste 0 -- -- 92
2020-11-22 06:00:00 11.1 0 Calma 14 Sudeste 0 -- -- 89
2020-11-22 05:00:00 11.2 11 Sudeste 14 Sudeste 0 -- -- 91
2020-11-22 04:00:00 10.7 11 Sudeste 17 Sudeste 0 -- -- 92
2020-11-22 03:00:00 10.9 12 Sudeste 19 Sudeste 0 -- -- 93
2020-11-22 02:00:00 10.9 16 Sudeste 23 Sudeste 0 -- -- 92
2020-11-22 01:00:00 11.2 17 Este 26 Este 0 -- -- 92
2020-11-22 00:00:00 11.1 19 Este 30 Este 0 -- -- 92
2020-11-21 23:00:00 11.4 22 Sudeste 40 Sudeste 0 -- -- 90
2020-11-21 22:00:00 12.3 26 Este 39 Este 0 -- -- 91
2020-11-21 21:00:00 12.6 24 Este 38 Este 0 -- -- 90
2020-11-21 20:00:00 13 29 Este 49 Este 0 -- -- 87
2020-11-21 19:00:00 12.6 32 Este 46 Este 0 -- -- 87
2020-11-21 18:00:00 12.7 29 Este 47 Este 0 -- -- 88
2020-11-21 17:00:00 12.6 32 Este 49 Este 0 -- -- 85
2020-11-21 16:00:00 13 33 Este 48 Este 0 -- -- 80
2020-11-21 15:00:00 13.4 34 Este 52 Este 0 -- -- 76
2020-11-21 14:00:00 13.5 36 Este 53 Este 0 -- -- 77
2020-11-21 13:00:00 13.2 32 Este 44 Este 0 -- -- 77
2020-11-21 12:00:00 13 30 Este 46 Este 0 -- -- 77
2020-11-21 11:00:00 13 33 Este 48 Este 0 -- -- 74
2020-11-21 10:00:00 12.8 31 Este 47 Este 0 -- -- 86
2020-11-21 09:00:00 11.4 31 Este 45 Este 0 -- -- 90
2020-11-21 08:00:00 10.8 29 Sudeste 42 Sudeste 0 -- -- 91
2020-11-21 07:00:00 12.1 31 Este 48 Este 0 -- -- 92
2020-11-21 06:00:00 10.9 27 Sudeste 40 Sudeste 0 -- -- 91
2020-11-21 05:00:00 11 28 Sudeste 45 Este 0 -- -- 93
2020-11-21 04:00:00 12.6 31 Este 48 Este 0 -- -- 92
2020-11-21 03:00:00 12 31 Este 49 Este 0 -- -- 92
2020-11-21 02:00:00 11.7 30 Este 48 Este 0 -- -- 91
2020-11-21 01:00:00 12.5 32 Este 50 Este 0 -- -- 90
2020-11-21 00:00:00 12.5 36 Este 52 Este 0 -- -- 88
2020-11-20 23:00:00 12.8 31 Este 53 Este 0 -- -- 91
2020-11-20 22:00:00 12.7 31 Este 49 Este 0 -- -- 86
2020-11-20 21:00:00 13.2 34 Este 49 Este 0 -- -- 85
2020-11-20 20:00:00 13.2 32 Este 50 Este 0 -- -- 85
2020-11-20 19:00:00 13.5 30 Este 53 Este 0 -- -- 82
2020-11-20 18:00:00 13.1 27 Este 47 Este 0 -- -- 81
2020-11-20 17:00:00 13.2 28 Este 43 Este 0 -- -- 77
2020-11-20 16:00:00 13.2 28 Este 44 Este 0 -- -- 79
2020-11-20 15:00:00 13.5 23 Este 40 Este 0 -- -- 73
2020-11-20 14:00:00 14.2 21 Este 40 Este 0 -- -- 68
2020-11-20 13:00:00 14.5 24 Este 37 Este 0 -- -- 70
2020-11-20 12:00:00 13.8 23 Este 33 Este 0 -- -- 75
2020-11-20 11:00:00 13.1 17 Este 27 Este 0 -- -- 82
2020-11-20 10:00:00 13 15 Este 26 Sudeste 0 -- -- 85
2020-11-20 09:00:00 11.5 16 Sudeste 21 Sudeste 0 -- -- 85
2020-11-20 08:00:00 11.9 13 Sudeste 19 Sudeste 0 -- -- 87
2020-11-20 07:00:00 11.9 14 Sudeste 22 Sudeste 0 -- -- 90
2020-11-20 06:00:00 12.3 15 Sudeste 27 Este 0 -- -- 87
2020-11-20 05:00:00 12.8 18 Este 35 Este 0 -- -- 87
2020-11-20 04:00:00 12.9 19 Este 32 Este 0 -- -- 85
2020-11-20 03:00:00 12.4 17 Este 30 Este 0 -- -- 90
2020-11-20 02:00:00 12.6 18 Este 30 Este 0 -- -- 90
2020-11-20 01:00:00 12.6 19 Este 32 Este 0 -- -- 91
2020-11-20 00:00:00 12.2 15 Este 29 Este 0 -- -- 94
2020-11-19 23:00:00 12.3 16 Este 26 Este 0 -- -- 96
2020-11-19 22:00:00 12.8 16 Este 34 Sudeste 0 -- -- 90
2020-11-19 21:00:00 13.3 18 Este 32 Este 0 -- -- 77
2020-11-19 20:00:00 12.5 21 Este 29 Este 0 -- -- 81
2020-11-19 19:00:00 13.3 17 Este 32 Este 0 -- -- 81
2020-11-19 18:00:00 12.6 14 Este 34 Este 0 -- -- 82
2020-11-19 17:00:00 12.7 16 Este 31 Este 0 -- -- 85
2020-11-19 16:00:00 12.9 9 Este 27 Este 0 -- -- 85
2020-11-19 15:00:00 13 8 Este 26 Sudeste 0 -- -- 85
2020-11-19 14:00:00 13.5 6 Este 22 Nordeste 0 -- -- 79
2020-11-19 13:00:00 13.8 12 Este 22 Este 0 -- -- 81
2020-11-19 12:00:00 13.5 12 Este 17 Este 0 -- -- 86
2020-11-19 11:00:00 12.7 9 Este 19 Sudeste 0 -- -- 91
2020-11-19 10:00:00 12.2 7 Este 22 Este 0 -- -- 94
2020-11-19 09:00:00 11.9 4 Nordeste 24 Sudeste 0 -- -- 93
2020-11-19 08:00:00 13 4 Sudeste 19 Nordeste 0 -- -- 90
2020-11-19 07:00:00 12.8 4 Sur 23 Sudeste 0 -- -- 91
2020-11-19 06:00:00 12.6 5 Sur 19 Sudeste 0 -- -- 95
2020-11-19 05:00:00 12.8 4 Sudeste 17 Sudeste 0 -- -- 96
2020-11-19 04:00:00 13.4 4 Sudeste 16 Sudeste 0 -- -- 97
2020-11-19 03:00:00 13.2 5 Sudeste 26 Sudeste 0 -- -- 98
2020-11-19 02:00:00 13.3 9 Sur 31 Sudeste 0.1 -- -- 98
2020-11-19 01:00:00 14.6 6 Sur 29 Noroeste 0 -- -- 98
2020-11-19 00:00:00 15.5 15 Oeste 32 Oeste 0 -- -- 98
2020-11-18 23:00:00 15.8 21 Oeste 32 Oeste 0 -- -- 98
2020-11-18 22:00:00 16.2 16 Oeste 30 Noroeste 0 -- -- 97
2020-11-18 21:00:00 16.3 15 Noroeste 23 Oeste 0 -- -- 88
2020-11-18 20:00:00 19.7 6 Sudeste 17 Sudeste 0 -- -- 55
2020-11-18 19:00:00 18.9 12 Sudeste 17 Sudeste 0 -- -- 59
2020-11-18 18:00:00 18.7 12 Sudeste 18 Sudeste 0 -- -- 61
2020-11-18 17:00:00 19.3 10 Sudeste 22 Sudeste 0 -- -- 65
2020-11-18 16:00:00 19.8 15 Sudeste 19 Sudeste 0 -- -- 63
2020-11-18 15:00:00 20.4 10 Sudeste 18 Sudeste 0 -- -- 62
2020-11-18 14:00:00 20 13 Sudeste 17 Sudeste 0 -- -- 60
2020-11-18 13:00:00 20.7 12 Sudeste 17 Sudeste 0 -- -- 59
2020-11-18 12:00:00 19.7 11 Sudeste 15 Sudeste 0 -- -- 66
2020-11-18 11:00:00 20.1 6 Sudeste 10 Sudeste 0 -- -- 64
2020-11-18 10:00:00 20 4 Sur 9 Sudoeste 0 -- -- 59
2020-11-18 09:00:00 17.3 6 Oeste 8 Oeste 0 -- -- 60
2020-11-18 08:00:00 14.8 0 Calma 9 Noroeste 0 -- -- 85
2020-11-18 07:00:00 17.4 3 Noroeste 12 Oeste 0 -- -- 57
2020-11-18 06:00:00 18.5 5 Sudoeste 13 Sudoeste 0 -- -- 55
2020-11-18 05:00:00 15.7 14 Sudoeste 18 Sudoeste 0 -- -- 70
2020-11-18 04:00:00 14.3 5 Oeste 10 Sudoeste 0 -- -- 92
2020-11-18 03:00:00 16.7 5 Sudeste 8 Sudeste 0 -- -- 60
2020-11-18 02:00:00 16.3 0 Calma 15 Oeste 0 -- -- 60
2020-11-18 01:00:00 14.8 12 Oeste 13 Oeste 0 -- -- 71
2020-11-18 00:00:00 16.1 4 Sur 11 Sudoeste 0 -- -- 74
2020-11-17 23:00:00 15.1 5 Oeste 9 Oeste 0 -- -- 69
2020-11-17 22:00:00 14.9 4 Sur 10 Sudeste 0 -- -- 76
2020-11-17 21:00:00 14.1 8 Sudeste 10 Sudeste 0 -- -- 96
2020-11-17 20:00:00 13.8 6 Sudeste 10 Sudeste 0 -- -- 96
2020-11-17 19:00:00 14.1 10 Sudeste 13 Sudeste 0 -- -- 95
2020-11-17 18:00:00 13.9 8 Sudeste 10 Sudeste 0 -- -- 94
2020-11-17 17:00:00 14.5 8 Sudeste 14 Sudeste 0 -- -- 93
2020-11-17 16:00:00 15 11 Sudeste 16 Sudeste 0 -- -- 92
2020-11-17 15:00:00 15.2 11 Este 22 Sudeste 0 -- -- 91
2020-11-17 14:00:00 14.9 17 Este 26 Sudeste 0 -- -- 90
2020-11-17 13:00:00 14.8 21 Este 27 Sudeste 0 -- -- 88
2020-11-17 12:00:00 15 17 Este 22 Sudeste 0 -- -- 77
2020-11-17 11:00:00 14.9 14 Sudeste 22 Sudeste 0 -- -- 66
2020-11-17 10:00:00 13.9 8 Sudeste 23 Sudeste 0 -- -- 77
2020-11-17 09:00:00 12.3 15 Sudeste 21 Sudeste 0 -- -- 76
2020-11-17 08:00:00 11.5 7 Sudeste 13 Sudeste 0 -- -- 85
2020-11-17 07:00:00 11.7 9 Sudeste 21 Sudeste 0 -- -- 81
2020-11-17 06:00:00 11.6 11 Sudeste 20 Sudeste 0 -- -- 88
2020-11-17 05:00:00 10.9 14 Sudeste 19 Sudeste 0 -- -- 93
2020-11-17 04:00:00 11.6 3 Sur 12 Sur 0 -- -- 90
2020-11-17 03:00:00 11.6 5 Sudeste 15 Sudeste 0 -- -- 90
2020-11-17 02:00:00 12.1 4 Sudeste 21 Sudeste 0 -- -- 88
2020-11-17 01:00:00 12.4 17 Sudeste 21 Sudeste 0 -- -- 88
2020-11-17 00:00:00 12.2 13 Sudeste 22 Sudeste 0 -- -- 91
2020-11-16 23:00:00 12.5 16 Sudeste 22 Sudeste 0 -- -- 92
2020-11-16 22:00:00 12.5 16 Sudeste 20 Sudeste 0 -- -- 93
2020-11-16 21:00:00 12.9 16 Sudeste 19 Sudeste 0 -- -- 92
2020-11-16 20:00:00 11.8 7 Este 14 Este 0 -- -- 92
2020-11-16 19:00:00 12.3 7 Este 12 Este 0 -- -- 90
2020-11-16 18:00:00 12.9 6 Este 11 Este 0 -- -- 86
2020-11-16 17:00:00 13.9 7 Este 10 Este 0 -- -- 79
2020-11-16 16:00:00 14.5 4 Este 11 Este 0 -- -- 75
2020-11-16 15:00:00 15.2 3 Sudeste 9 Sudeste 0 -- -- 73
2020-11-16 14:00:00 14.7 4 Noroeste 11 Oeste 0 -- -- 72
2020-11-16 13:00:00 14.6 7 Oeste 13 Oeste 0 -- -- 70
2020-11-16 12:00:00 14.9 6 Sudoeste 11 Sudoeste 0 -- -- 67
2020-11-16 11:00:00 14.2 7 Sudoeste 12 Sudoeste 0 -- -- 75
2020-11-16 10:00:00 12.5 10 Sudoeste 13 Sudoeste 0 -- -- 85
2020-11-16 09:00:00 11.9 11 Sudoeste 16 Sudoeste 0 -- -- 88
2020-11-16 08:00:00 11.3 11 Sudoeste 14 Sudoeste 0 -- -- 88
2020-11-16 07:00:00 12.3 12 Sudoeste 27 Oeste 0 -- -- 91
2020-11-16 06:00:00 13.5 13 Oeste 30 Noroeste 0 -- -- 81
2020-11-16 05:00:00 13.7 14 Oeste 28 Oeste 0 -- -- 82
2020-11-16 04:00:00 14.2 11 Oeste 39 Noroeste 0 -- -- 83
2020-11-16 03:00:00 14.2 15 Oeste 29 Oeste 0 -- -- 83
2020-11-16 02:00:00 13.8 13 Oeste 27 Oeste 0 -- -- 82
2020-11-16 01:00:00 14 14 Oeste 31 Oeste 0 -- -- 84
2020-11-16 00:00:00 14.1 18 Oeste 36 Oeste 0 -- -- 82
2020-11-15 23:00:00 14 21 Oeste 37 Oeste 0 -- -- 85
2020-11-15 22:00:00 13.7 15 Oeste 33 Oeste 0 -- -- 88
2020-11-15 21:00:00 13.8 21 Oeste 36 Oeste 0 -- -- 92
2020-11-15 20:00:00 13 22 Oeste 35 Oeste 0 -- -- 96
2020-11-15 19:00:00 13.1 19 Sudoeste 52 Oeste 0 -- -- 97
2020-11-15 18:00:00 13.6 24 Oeste 63 Norte 0.1 -- -- 87
2020-11-15 17:00:00 12.9 29 Noroeste 62 Noroeste 0.4 -- -- 99
2020-11-15 16:00:00 13.4 28 Oeste 66 Noroeste 0 -- -- 98
2020-11-15 15:00:00 14.7 29 Oeste 66 Noroeste 0.5 -- -- 93
2020-11-15 14:00:00 13.9 31 Oeste 71 Norte 2.4 -- -- 94
2020-11-15 13:00:00 13.7 25 Noroeste 66 Noroeste 0.6 -- -- 98
2020-11-15 12:00:00 14.1 24 Noroeste 52 Noroeste 0 -- -- 98
2020-11-15 11:00:00 14.5 24 Noroeste 68 Noroeste 0 -- -- 99
2020-11-15 10:00:00 18.4 19 Oeste 46 Sudoeste 0 -- -- 88
2020-11-15 09:00:00 19.5 19 Oeste 35 Sudoeste 0 -- -- 72
2020-11-15 08:00:00 19 17 Oeste 34 Sudoeste 0 -- -- 71
2020-11-15 07:00:00 18.8 16 Sudoeste 25 Sudoeste 0 -- -- 70
2020-11-15 06:00:00 19.3 10 Oeste 21 Oeste 0 -- -- 63
2020-11-15 05:00:00 19.8 8 Sudoeste 11 Sur 0 -- -- 58
2020-11-15 04:00:00 18.9 6 Sur 17 Sudoeste 0 -- -- 60
2020-11-15 03:00:00 18.6 5 Sur 9 Sur 0 -- -- 62
2020-11-15 02:00:00 18.5 0 Calma 9 Sudeste 0 -- -- 68
2020-11-15 01:00:00 18.6 6 Sudeste 9 Noroeste 0 -- -- 65
2020-11-15 00:00:00 18.6 6 Noroeste 12 Noroeste 0 -- -- 60
2020-11-14 23:00:00 19.3 8 Sudoeste 18 Sur 0 -- -- 55
2020-11-14 22:00:00 18.8 5 Sur 18 Sur 0 -- -- 59
2020-11-14 21:00:00 18.7 7 Sur 22 Sudoeste 0 -- -- 62
2020-11-14 20:00:00 18.9 6 Sur 21 Sur 0 -- -- 60
2020-11-14 19:00:00 18.5 5 Sur 19 Sur 0 -- -- 62
2020-11-14 18:00:00 18.7 4 Sur 17 Sudeste 0 -- -- 63
2020-11-14 17:00:00 17.2 14 Sudeste 23 Sudeste 0 -- -- 60
2020-11-14 16:00:00 18.2 8 Sudeste 13 Sudeste 0 -- -- 69
2020-11-14 15:00:00 17.2 8 Sudeste 14 Sudeste 0 -- -- 72
2020-11-14 14:00:00 20 2 Nordeste 9 Este 0 -- -- 47
2020-11-14 13:00:00 19.8 5 Sudeste 10 Sudeste 0 -- -- 58
2020-11-14 12:00:00 19.5 3 Este 9 Sur 0 -- -- 51
2020-11-14 11:00:00 19.2 5 Sur 10 Sudoeste 0 -- -- 50
2020-11-14 10:00:00 16.5 4 Oeste 11 Sudoeste 0 -- -- 60
2020-11-14 09:00:00 14.9 7 Sudoeste 16 Sudoeste 0 -- -- 64
2020-11-14 08:00:00 15.2 6 Sudeste 16 Sudeste 0 -- -- 59
2020-11-14 07:00:00 14.9 4 Sur 15 Sudoeste 0 -- -- 63
2020-11-14 06:00:00 14.7 4 Sur 15 Sudoeste 0 -- -- 61
2020-11-14 05:00:00 15.5 6 Sur 15 Sur 0 -- -- 58
2020-11-14 04:00:00 16.7 5 Sudoeste 14 Sur 0 -- -- 60
2020-11-14 03:00:00 15.3 9 Sur 19 Sudoeste 0 -- -- 68
2020-11-14 02:00:00 14.8 15 Sudoeste 19 Sudoeste 0 -- -- 77
2020-11-14 01:00:00 13.6 13 Sudoeste 16 Sudoeste 0 -- -- 87
2020-11-14 00:00:00 13.9 13 Sudoeste 17 Sudoeste 0 -- -- 86
2020-11-13 23:00:00 15.4 4 Sudeste 27 Sudeste 0 -- -- 71
2020-11-13 22:00:00 15.9 9 Sudeste 25 Sudeste 0 -- -- 75
2020-11-13 21:00:00 14.7 19 Sudeste 25 Sudeste 0 -- -- 97
2020-11-13 20:00:00 14.7 16 Este 26 Este 0 -- -- 97
2020-11-13 19:00:00 14.4 12 Este 18 Este 0 -- -- 97
2020-11-13 18:00:00 14.6 9 Este 17 Este 0 -- -- 96
2020-11-13 17:00:00 15.7 6 Este 15 Este 0 -- -- 92
2020-11-13 16:00:00 16.5 8 Este 12 Este 0 -- -- 90
2020-11-13 15:00:00 16.9 7 Nordeste 12 Este 0 -- -- 76
2020-11-13 14:00:00 16.9 5 Nordeste 7 Norte 0 -- -- 73
2020-11-13 13:00:00 17.1 4 Nordeste 9 Oeste 0 -- -- 71
2020-11-13 12:00:00 16.7 7 Oeste 10 Oeste 0 -- -- 73
2020-11-13 11:00:00 16 2 Sudeste 10 Sur 0 -- -- 74
2020-11-13 10:00:00 16.2 4 Sudeste 18 Sur 0 -- -- 69
2020-11-13 09:00:00 15.1 8 Sur 17 Sudoeste 0 -- -- 71
2020-11-13 08:00:00 14.3 6 Sur 11 Sur 0 -- -- 77
2020-11-13 07:00:00 15.1 6 Sur 13 Sur 0 -- -- 68
2020-11-13 06:00:00 13.9 8 Sur 17 Oeste 0 -- -- 85
2020-11-13 05:00:00 14.6 10 Sudoeste 19 Sudoeste 0 -- -- 76
2020-11-13 04:00:00 15.5 15 Sudoeste 18 Sudoeste 0 -- -- 76
2020-11-13 03:00:00 14.8 13 Sudoeste 15 Sudoeste 0 -- -- 83
2020-11-13 02:00:00 15 12 Sudoeste 18 Oeste 0 -- -- 83
2020-11-13 01:00:00 14.6 13 Oeste 21 Oeste 0 -- -- 96
2020-11-13 00:00:00 14.8 15 Sudoeste 21 Oeste 0 -- -- 96
2020-11-12 23:00:00 14.4 15 Sudoeste 17 Sudoeste 0 -- -- 97
2020-11-12 22:00:00 14.3 7 Oeste 14 Sudeste 0 -- -- 97
2020-11-12 21:00:00 14.6 13 Sudeste 22 Este 0 -- -- 98
2020-11-12 20:00:00 14.6 17 Sudeste 21 Sudeste 0 -- -- 98
2020-11-12 19:00:00 14.6 15 Sudeste 20 Sudeste 0 -- -- 98
2020-11-12 18:00:00 14.6 15 Este 23 Sudeste 0 -- -- 96
2020-11-12 17:00:00 15.2 18 Este 26 Sudeste 0 -- -- 96
2020-11-12 16:00:00 15.9 18 Este 26 Este 0 -- -- 96
2020-11-12 15:00:00 16.3 17 Este 27 Este 0 -- -- 94
2020-11-12 14:00:00 16.2 18 Este 26 Este 0 -- -- 94
2020-11-12 13:00:00 16.6 18 Este 24 Este 0 -- -- 93
2020-11-12 12:00:00 16.1 16 Este 25 Este 0 -- -- 95
2020-11-12 11:00:00 15.1 13 Este -- -- -- -- -- 97
2020-11-12 10:00:00 14.6 17 Este 24 Sudeste 0 -- -- 97
2020-11-12 09:00:00 14.2 13 Este 18 Este 0 -- -- 97
2020-11-12 08:00:00 13.8 8 Este 12 Sudeste 0 -- -- 97
2020-11-12 07:00:00 14 0 Calma 5 Nordeste 0 -- -- 97
2020-11-12 06:00:00 13.6 2 Este 5 Este 0 -- -- 96
2020-11-12 05:00:00 13.8 0 Calma 3 Sudeste 0 -- -- 96
2020-11-12 04:00:00 14.1 0 Calma 17 Noroeste 0 -- -- 96
2020-11-12 03:00:00 14.1 10 Noroeste 18 Norte 0 -- -- 97
2020-11-12 02:00:00 14.6 9 Noroeste 21 Noroeste 0 -- -- 96
2020-11-12 01:00:00 15.5 11 Noroeste 19 Noroeste 0 -- -- 86
2020-11-12 00:00:00 17 8 Sudoeste 17 Sudoeste 0 -- -- 55
2020-11-11 23:00:00 17.1 9 Sur 14 Sudoeste 0 -- -- 56
2020-11-11 22:00:00 16.4 9 Sur 19 Sudoeste 0 -- -- 61
2020-11-11 21:00:00 16.6 4 Sur 15 Sudoeste 0 -- -- 61
2020-11-11 20:00:00 16.3 4 Sur 10 Sudeste 0 -- -- 66
2020-11-11 19:00:00 16.1 3 Sur 10 Sudeste 0 -- -- 59
2020-11-11 18:00:00 15.2 2 Sudeste 10 Sudeste 0 -- -- 66
2020-11-11 17:00:00 14.9 11 Sudeste 15 Sudeste 0 -- -- 85
2020-11-11 16:00:00 16.4 4 Este 9 Sudeste 0 -- -- 69
2020-11-11 15:00:00 16.5 6 Sudoeste 9 Sudoeste 0 -- -- 59
2020-11-11 14:00:00 17 0 Calma 11 Oeste 0 -- -- 65
2020-11-11 13:00:00 17.3 5 Sudoeste 15 Sudoeste 0 -- -- 54
2020-11-11 12:00:00 15.1 11 Sudoeste 15 Oeste 0 -- -- 75
2020-11-11 11:00:00 16.5 3 Sudeste 8 Sudeste 0 -- -- 65
2020-11-11 10:00:00 14.9 5 Sudeste 10 Sudeste 0 -- -- 66
2020-11-11 09:00:00 13.1 2 Sudeste 11 Oeste 0 -- -- 74
2020-11-11 08:00:00 13 6 Sudoeste 12 Sudoeste 0 -- -- 74
2020-11-11 07:00:00 12.6 9 Sudoeste 13 Sudoeste 0 -- -- 85
2020-11-11 06:00:00 12.4 8 Sudoeste 13 Sudoeste 0 -- -- 86
2020-11-11 05:00:00 12.1 6 Sur 10 Sudoeste 0 -- -- 92
2020-11-11 04:00:00 12.6 2 Noroeste 5 Noroeste 0 -- -- 93
2020-11-11 03:00:00 12.3 3 Oeste 12 Sudoeste 0 -- -- 90
2020-11-11 02:00:00 13 4 Sur 19 Sudeste 0 -- -- 92
2020-11-11 01:00:00 12.9 4 Sudeste 15 Sudeste 0 -- -- 94
2020-11-11 00:00:00 13.2 4 Sudeste 18 Sudeste 0 -- -- 96
2020-11-10 23:00:00 13.6 13 Sudeste 17 Sudeste 0 -- -- 97
2020-11-10 22:00:00 13.6 14 Sudeste 19 Sudeste 0 -- -- 97
2020-11-10 21:00:00 14 16 Este 23 Este 0 -- -- 97
2020-11-10 20:00:00 13.7 15 Este 21 Este 0 -- -- 96
2020-11-10 19:00:00 13.5 14 Este 21 Este 0 -- -- 96
2020-11-10 18:00:00 13.2 13 Este 19 Este 0 -- -- 93
2020-11-10 17:00:00 13.9 5 Este 14 Sudeste 0 -- -- 86
2020-11-10 16:00:00 14.4 4 Este 12 Nordeste 0 -- -- 82
2020-11-10 15:00:00 15.1 3 Sudeste 10 Este 0 -- -- 79
2020-11-10 14:00:00 14.7 3 Nordeste 10 Sudeste 0 -- -- 75
2020-11-10 13:00:00 14.3 3 Norte 11 Oeste 0 -- -- 74
2020-11-10 12:00:00 14.6 7 Oeste 15 Oeste 0 -- -- 74
2020-11-10 11:00:00 14.5 8 Sudoeste 14 Sudoeste 0 -- -- 77
2020-11-10 10:00:00 13.1 11 Sudoeste 17 Sudoeste 0 -- -- 91
2020-11-10 09:00:00 12.8 13 Oeste 16 Oeste 0 -- -- 94
2020-11-10 08:00:00 12.7 10 Oeste 13 Oeste 0 -- -- 92
2020-11-10 07:00:00 12.7 8 Sudoeste 13 Sudoeste 0 -- -- 93
2020-11-10 06:00:00 12.4 10 Sudoeste 12 Sudoeste 0 -- -- 94
2020-11-10 05:00:00 12.7 10 Sudoeste 13 Sudoeste 0 -- -- 96
2020-11-10 04:00:00 12.4 10 Sudoeste 13 Sudoeste 0 -- -- 97
2020-11-10 03:00:00 13.1 10 Sudoeste 12 Sudoeste 0 -- -- 96
2020-11-10 02:00:00 13.5 7 Sudoeste 12 Oeste 0 -- -- 96
2020-11-10 01:00:00 13.8 8 Oeste 14 Oeste 0 -- -- 96
2020-11-10 00:00:00 13.6 9 Sudoeste 11 Sudoeste 0 -- -- 96
2020-11-09 23:00:00 13.9 9 Sudoeste 13 Sudoeste 0 -- -- 97
2020-11-09 22:00:00 14 9 Sudoeste 16 Oeste 0.1 -- -- 97
2020-11-09 21:00:00 14.2 11 Oeste 18 Oeste 0.3 -- -- 98
2020-11-09 20:00:00 14 7 Oeste 12 Oeste 0 -- -- 98
2020-11-09 19:00:00 13.9 6 Oeste 17 Oeste 1.9 -- -- 98
2020-11-09 18:00:00 14.8 8 Oeste 21 Norte 0 -- -- 90
2020-11-09 17:00:00 15.9 0 Calma 12 Sudeste 0 -- -- 89
2020-11-09 16:00:00 15.9 8 Sudeste 12 Sudeste 0 -- -- 89
2020-11-09 15:00:00 16.9 4 Este 8 Este 0.1 -- -- 90
2020-11-09 14:00:00 16.1 0 Calma 10 Sur 0 -- -- 91
2020-11-09 13:00:00 14.6 8 Sudoeste 12 Oeste 0.5 -- -- 92
2020-11-09 12:00:00 15.3 2 Sudoeste 11 Sudoeste 0 -- -- 88
2020-11-09 11:00:00 15.2 6 Sudoeste 13 Sudeste 0 -- -- 90
2020-11-09 10:00:00 15.4 6 Sudoeste 19 Sudoeste 0.2 -- -- 84
2020-11-09 09:00:00 14.4 6 Sudoeste 12 Noroeste 0.1 -- -- 91
2020-11-09 08:00:00 14.2 8 Oeste 20 Oeste 0.1 -- -- 89
2020-11-09 07:00:00 14.5 9 Oeste 12 Oeste 0 -- -- 77
2020-11-09 06:00:00 15.9 3 Sur 13 Oeste 0 -- -- 68
2020-11-09 05:00:00 15.8 7 Sudoeste 12 Sudoeste 0 -- -- 69
2020-11-09 04:00:00 15.6 0 Calma 14 Sudeste 0 -- -- 77
2020-11-09 03:00:00 15.6 11 Sudeste 13 Sudeste 0 -- -- 87
2020-11-09 02:00:00 15.5 2 Este 5 Sudeste 0 -- -- 87
2020-11-09 01:00:00 14.9 4 Sur 8 Sudoeste 0 -- -- 88
2020-11-09 00:00:00 16 3 Oeste 8 Norte 0 -- -- 85
2020-11-08 23:00:00 15.8 4 Noroeste 15 Noroeste 0 -- -- 85
2020-11-08 22:00:00 16.4 10 Noroeste 16 Noroeste 0 -- -- 82
2020-11-08 21:00:00 15.6 12 Sudoeste 22 Oeste 0 -- -- 69
2020-11-08 20:00:00 16.4 8 Sur 22 Sudeste 0 -- -- 61
2020-11-08 19:00:00 18.4 6 Sur 21 Sudeste 0 -- -- 59
2020-11-08 18:00:00 17.5 4 Sur 17 Sudeste 0 -- -- 71
2020-11-08 17:00:00 15.7 12 Sudeste 23 Este 0 -- -- 91
2020-11-08 16:00:00 16.3 19 Sudeste 24 Sudeste 0 -- -- 86
2020-11-08 15:00:00 16 16 Sudeste 21 Sudeste 0 -- -- 88
2020-11-08 14:00:00 15.6 6 Este 8 Este 0 -- -- 87
2020-11-08 13:00:00 15.8 5 Norte 27 Noroeste 0 -- -- 84
2020-11-08 12:00:00 15.7 15 Noroeste 37 Noroeste 0 -- -- 82
2020-11-08 11:00:00 18.7 20 Sudeste 28 Sudeste 0 -- -- 62
2020-11-08 10:00:00 18.6 18 Sudeste 32 Sudeste 0 -- -- 60
2020-11-08 09:00:00 18.3 14 Sudeste 31 Sudeste 0 -- -- 63
2020-11-08 08:00:00 16.7 5 Sudeste 28 Sudeste 0 -- -- 65
2020-11-08 07:00:00 18.1 18 Sudeste 32 Sudeste 0 -- -- 62
2020-11-08 06:00:00 17.2 10 Sudeste 23 Sudeste 0 -- -- 65
2020-11-08 05:00:00 16.6 4 Sur 22 Sudeste 0 -- -- 68
2020-11-08 04:00:00 16.8 16 Sudeste 24 Sudeste 0 -- -- 64
2020-11-08 03:00:00 14.9 6 Este 13 Sudeste 0 -- -- 72
2020-11-08 02:00:00 15.3 6 Sudeste 17 Sudeste 0 -- -- 71
2020-11-08 01:00:00 15.3 9 Sudeste 18 Sur 0 -- -- 75
2020-11-08 00:00:00 15.6 3 Sur 12 Sur 0 -- -- 70
2020-11-07 23:00:00 16.2 4 Sudeste 12 Sudeste 0 -- -- 75
2020-11-07 22:00:00 16.5 9 Sudeste 19 Sudeste 0 -- -- 77
2020-11-07 21:00:00 15.6 15 Sudeste 28 Sudeste 0 -- -- 79
2020-11-07 20:00:00 15.5 19 Sudeste 26 Sudeste 0 -- -- 81
2020-11-07 19:00:00 15.6 19 Sudeste 27 Sudeste 0 -- -- 87
2020-11-07 18:00:00 15.5 17 Sudeste 22 Sudeste 0 -- -- 82
2020-11-07 17:00:00 16.5 12 Sudeste 20 Sudeste 0 -- -- 75
2020-11-07 16:00:00 16.6 16 Sudeste 20 Sudeste 0 -- -- 75
2020-11-07 15:00:00 18.3 8 Este 16 Sudeste 0 -- -- 77
2020-11-07 14:00:00 17.4 8 Este 12 Sudeste 0 -- -- 77
2020-11-07 13:00:00 18.4 7 Sudeste 10 Sudeste 0 -- -- 76
2020-11-07 12:00:00 18 3 Sudoeste 13 Oeste 0 -- -- 77
2020-11-07 11:00:00 15.4 6 Sur 13 Sudoeste 0 -- -- 91
2020-11-07 10:00:00 -- 9 Sudoeste 11 Sudoeste 0 -- -- --
2020-11-07 09:00:00 14.3 5 Sudoeste 8 Sudoeste 0 -- -- 92
2020-11-07 08:00:00 14.4 4 Sudoeste 11 Sudoeste 0 -- -- 93
2020-11-07 07:00:00 14 5 Sur 7 Sudoeste 0 -- -- 95
2020-11-07 06:00:00 14.3 0 Calma 9 Sudoeste 0 -- -- 96
2020-11-07 05:00:00 14.2 4 Sudoeste 8 Oeste 0 -- -- 96
2020-11-07 04:00:00 14.8 4 Noroeste 12 Noroeste 0 -- -- 95
2020-11-07 03:00:00 15 8 Noroeste 15 Noroeste 0 -- -- 94
2020-11-07 02:00:00 15 12 Noroeste 24 Noroeste 0 -- -- 93
2020-11-07 01:00:00 15.2 15 Noroeste 49 Noroeste 0 -- -- 92
2020-11-07 00:00:00 16.3 21 Noroeste 47 Noroeste 0 -- -- 88
2020-11-06 23:00:00 16.1 26 Sudeste 60 Sudeste 1.7 -- -- 87
2020-11-06 22:00:00 19.7 31 Sudeste 52 Sudeste 0 -- -- 63
2020-11-06 21:00:00 20.3 22 Sudeste 45 Sudeste 0 -- -- 59
2020-11-06 20:00:00 18.6 21 Sudeste 45 Este 0 -- -- 81
2020-11-06 19:00:00 17.4 15 Sudeste 35 Sudeste 0 -- -- 85
2020-11-06 18:00:00 18.9 23 Sudeste 33 Sudeste 0 -- -- 74
2020-11-06 17:00:00 18.9 13 Este 30 Sudeste 0 -- -- 76
2020-11-06 16:00:00 18.7 20 Sudeste 27 Sudeste 0 -- -- 77
2020-11-06 15:00:00 18.9 18 Este 31 Este 0 -- -- 71
2020-11-06 14:00:00 20.8 18 Sudeste 35 Sudeste 0 -- -- 58
2020-11-06 13:00:00 20.5 17 Sudeste 37 Sudeste 0 -- -- 62
2020-11-06 12:00:00 21 22 Sudeste 33 Sudeste 0 -- -- 56
2020-11-06 11:00:00 18.1 15 Sudeste 30 Sudeste 0 -- -- 67
2020-11-06 10:00:00 16.2 11 Sudeste 24 Sudeste 0 -- -- 73
2020-11-06 09:00:00 17.8 18 Sudeste 32 Sudeste 0 -- -- 64
2020-11-06 08:00:00 15.8 21 Sudeste 30 Sudeste 0 -- -- 73
2020-11-06 07:00:00 13.7 14 Sudeste 24 Este 0 -- -- 86
2020-11-06 06:00:00 14.6 16 Sudeste 26 Sudeste 0 -- -- 77
2020-11-06 05:00:00 14.2 20 Sudeste 29 Sudeste 0 -- -- 85
2020-11-06 04:00:00 14 19 Sudeste 31 Sudeste 0 -- -- 85
2020-11-06 03:00:00 13.9 20 Sudeste 27 Sudeste 0 -- -- 85
2020-11-06 02:00:00 13.8 21 Sudeste 24 Sudeste 0 -- -- 84
2020-11-06 01:00:00 13.1 12 Sudeste 24 Sudeste 0 -- -- 90
2020-11-06 00:00:00 12.8 14 Sudeste 25 Sudeste 0 -- -- 94
2020-11-05 23:00:00 13.4 18 Sudeste 30 Este 0 -- -- 96
2020-11-05 22:00:00 13.1 18 Sudeste 34 Este 0 -- -- 94
2020-11-05 21:00:00 13.5 21 Este 43 Este 0 -- -- 94
2020-11-05 20:00:00 14.3 28 Este 51 Este 0 -- -- 94
2020-11-05 19:00:00 14.2 36 Este 54 Este 0 -- -- 93
2020-11-05 18:00:00 14 37 Este 62 Este 0 -- -- 91
2020-11-05 17:00:00 14.1 42 Este 65 Este 0 -- -- 90
2020-11-05 16:00:00 13.8 44 Este 68 Nordeste 0 -- -- 87
2020-11-05 15:00:00 14 42 Este 73 Este 0 -- -- 85
2020-11-05 14:00:00 13.7 42 Este 70 Este 0 -- -- 84
2020-11-05 13:00:00 13.5 42 Este 71 Este 0 -- -- 85
2020-11-05 12:00:00 13.7 45 Este 80 Este 0 -- -- 85
2020-11-05 11:00:00 13.2 45 Este 73 Este 0 -- -- 86
2020-11-05 10:00:00 13.4 46 Este 76 Este 0 -- -- 84
2020-11-05 09:00:00 13.3 42 Este 79 Este 0 -- -- 84
2020-11-05 08:00:00 13.2 45 Este 73 Este 0 -- -- 80
2020-11-05 07:00:00 13.2 43 Este 79 Este 0 -- -- 77
2020-11-05 06:00:00 13.1 44 Este 77 Este 0 -- -- 77
2020-11-05 05:00:00 13.2 44 Este 79 Este 0 -- -- 77
2020-11-05 04:00:00 13.2 40 Este 68 Este 0 -- -- 82
2020-11-05 03:00:00 13 42 Este 73 Este 0 -- -- 76
2020-11-05 02:00:00 12.1 38 Este 66 Este 0 -- -- 81
2020-11-05 01:00:00 12.6 42 Este 61 Este 0.1 -- -- 82
2020-11-05 00:00:00 12.1 38 Este 69 Este 0 -- -- 89
2020-11-04 23:00:00 13 45 Este 76 Este 0 -- -- 73
2020-11-04 22:00:00 12.1 42 Este 76 Este 0 -- -- 77
2020-11-04 21:00:00 13 44 Este 74 Este 0 -- -- 68
2020-11-04 20:00:00 12.9 45 Este 77 Este 0 -- -- 71
2020-11-04 19:00:00 12.2 40 Este 75 Este 1.6 -- -- 82
2020-11-04 18:00:00 12.3 29 Este 55 Este 0 -- -- 77
2020-11-04 17:00:00 11.8 23 Este 44 Sudeste 0 -- -- 84
2020-11-04 16:00:00 10.9 24 Este 57 Este 1.1 -- -- 89
2020-11-04 15:00:00 11.9 19 Este 31 Este 0 -- -- 75
2020-11-04 14:00:00 10.7 20 Sudeste 39 Este 0 -- -- 77
2020-11-04 13:00:00 11.7 11 Este 18 Este 0.1 -- -- 79
2020-11-04 12:00:00 11.9 0 Calma 12 Oeste 0 -- -- 82
2020-11-04 11:00:00 10.7 0 Calma 9 Oeste 0 -- -- 86
2020-11-04 10:00:00 10.7 5 Sudoeste 12 Sudoeste 0 -- -- 88
2020-11-04 09:00:00 8.7 9 Sudoeste 14 Sur 0 -- -- 93
2020-11-04 08:00:00 9.1 4 Sur 21 Sudeste 0 -- -- 93
2020-11-04 07:00:00 8.9 14 Sur 19 Sudoeste 0 -- -- 90
2020-11-04 06:00:00 8.7 14 Sudoeste 21 Sudoeste 0 -- -- 92
2020-11-04 05:00:00 8.8 14 Sudoeste 18 Sudoeste 0.5 -- -- 94
2020-11-04 04:00:00 9.6 3 Sur 12 Sudoeste 0.3 -- -- 86
2020-11-04 03:00:00 9.6 4 Sur 16 Sudoeste 3.5 -- -- 92
2020-11-04 02:00:00 9.1 15 Sudoeste 23 Sudoeste 0.2 -- -- 93
2020-11-04 01:00:00 9.8 15 Sudoeste 21 Sudoeste 0 -- -- 89
2020-11-04 00:00:00 10.2 14 Sudoeste 17 Sudoeste 0 -- -- 76
2020-11-03 23:00:00 10.7 9 Sudoeste 14 Sudoeste 0 -- -- 76
2020-11-03 22:00:00 10.4 11 Sudoeste 17 Sudoeste 0 -- -- 81
2020-11-03 21:00:00 10.9 3 Sudoeste 12 Sudeste 0 -- -- 75
2020-11-03 20:00:00 12.5 4 Noroeste 26 Noroeste 0 -- -- 68
2020-11-03 19:00:00 11.6 0 Calma 16 Sudeste 0 -- -- 74
2020-11-03 18:00:00 12.1 3 Sudeste 33 Norte 0 -- -- 74
2020-11-03 17:00:00 12.9 14 Noroeste 31 Noroeste 0 -- -- 62
2020-11-03 16:00:00 12.6 16 Noroeste 29 Noroeste 0 -- -- 63
2020-11-03 15:00:00 13.1 9 Noroeste 27 Norte 0 -- -- 65
2020-11-03 14:00:00 13.2 12 Noroeste 28 Noroeste 0 -- -- 61
2020-11-03 13:00:00 13.2 10 Noroeste 32 Norte 0 -- -- 67
2020-11-03 12:00:00 13.2 10 Noroeste 38 Norte 0 -- -- 61
2020-11-03 11:00:00 13.4 4 Noroeste 42 Noroeste 0 -- -- 68
2020-11-03 10:00:00 13.4 14 Noroeste 39 Norte 0.1 -- -- 64
2020-11-03 09:00:00 11.7 6 Sudoeste 33 Noroeste 0.4 -- -- 92
2020-11-03 08:00:00 11.3 18 Noroeste 41 Nordeste 2 -- -- 93
2020-11-03 07:00:00 11.7 10 Sudoeste 31 Noroeste 2.7 -- -- 98
2020-11-03 06:00:00 11.9 9 Oeste 43 Norte 0.2 -- -- 97
2020-11-03 05:00:00 12 19 Sudoeste 35 Oeste 0.5 -- -- 87
2020-11-03 04:00:00 11.5 17 Sudoeste 22 Sudoeste 0 -- -- 79
2020-11-03 03:00:00 11.4 16 Sudoeste 24 Sudoeste 0 -- -- 86
2020-11-03 02:00:00 12.5 14 Sudoeste 30 Oeste 0 -- -- 89
2020-11-03 01:00:00 13.4 19 Oeste 34 Oeste 0 -- -- 87
2020-11-03 00:00:00 13.7 18 Oeste 33 Oeste 0 -- -- 90
2020-11-02 23:00:00 12.9 15 Sudoeste 21 Sudoeste 0.1 -- -- 93
2020-11-02 22:00:00 12.6 9 Sur 17 Sudoeste 0 -- -- 96
2020-11-02 21:00:00 12.3 10 Sudoeste 12 Sudoeste 0.1 -- -- 97
2020-11-02 20:00:00 12.6 8 Oeste 20 Oeste 0.3 -- -- 96
2020-11-02 19:00:00 12.5 12 Sudoeste 19 Sudoeste 0 -- -- 96
2020-11-02 18:00:00 12.3 12 Sudoeste 22 Oeste 0.1 -- -- 94
2020-11-02 17:00:00 12.5 13 Oeste 28 Oeste 0.8 -- -- 93
2020-11-02 16:00:00 12 16 Noroeste 39 Oeste 1 -- -- 98
2020-11-02 15:00:00 12.3 16 Noroeste 38 Noroeste 1 -- -- 98
2020-11-02 14:00:00 14.1 22 Noroeste 52 Noroeste 0 -- -- 91
2020-11-02 13:00:00 14.6 31 Noroeste 64 Noroeste 0.2 -- -- 81
2020-11-02 12:00:00 14.2 29 Noroeste 54 Noroeste 0.1 -- -- 99
2020-11-02 11:00:00 15.2 30 Noroeste 64 Noroeste 0 -- -- 98
2020-11-02 10:00:00 20.3 13 Oeste 22 Sudoeste 0 -- -- 70
2020-11-02 09:00:00 19.2 14 Sudoeste 21 Sudoeste 0 -- -- 73
2020-11-02 08:00:00 18 11 Sur 23 Sudoeste 0 -- -- 79
2020-11-02 07:00:00 17.1 8 Sur 25 Sudoeste 0 -- -- 85
2020-11-02 06:00:00 18.8 8 Sudeste 22 Sudeste 0 -- -- 84
2020-11-02 05:00:00 18.6 8 Sudeste 20 Sudoeste 0 -- -- 83
2020-11-02 04:00:00 18.6 6 Sudeste 12 Sudeste 0 -- -- 83
2020-11-02 03:00:00 18.6 4 Sudeste 8 Sudeste 0 -- -- 82
2020-11-02 02:00:00 18.6 5 Sudeste 8 Nordeste 0 -- -- 82
2020-11-02 01:00:00 18.8 6 Este 11 Este 0 -- -- 79
2020-11-02 00:00:00 18.9 3 Este 7 Norte 0 -- -- 77
2020-11-01 23:00:00 19.8 5 Norte 12 Noroeste 0 -- -- 74
2020-11-01 22:00:00 19.2 4 Noroeste 9 Noroeste 0 -- -- 75
2020-11-01 21:00:00 20 7 Oeste 9 Oeste 0 -- -- 71
2020-11-01 20:00:00 19.6 4 Sur 13 Sudeste 0 -- -- 71
2020-11-01 19:00:00 19.4 12 Sudeste 14 Sudeste 0 -- -- 69
2020-11-01 18:00:00 19.3 12 Sudeste 17 Sudeste 0 -- -- 69
2020-11-01 17:00:00 19.7 15 Sudeste 19 Este 0 -- -- 71
2020-11-01 16:00:00 20.1 12 Sudeste 15 Sudeste 0 -- -- 74
2020-11-01 15:00:00 20.5 6 Sudeste 12 Sudeste 0 -- -- 71
2020-11-01 14:00:00 21.5 8 Sudeste 13 Sudeste 0 -- -- 71
2020-11-01 13:00:00 21.2 9 Sudeste 15 Sudeste 0 -- -- 75
2020-11-01 12:00:00 20 5 Sudeste 12 Sudeste 0 -- -- 81
2020-11-01 11:00:00 19.9 6 Sudoeste 9 Sudoeste 0 -- -- 79
2020-11-01 10:00:00 19.8 8 Oeste 16 Noroeste 0 -- -- 76
2020-11-01 09:00:00 20.8 7 Noroeste 12 Sudoeste 0 -- -- 65
2020-11-01 08:00:00 20.7 9 Sudoeste 14 Sudoeste 0 -- -- 64
2020-11-01 07:00:00 21.1 13 Sudoeste 22 Sudoeste 0 -- -- 61
2020-11-01 06:00:00 20.4 9 Sur 20 Sudoeste 0 -- -- 64
2020-11-01 05:00:00 20.6 17 Sudoeste 23 Sudoeste 0 -- -- 63
2020-11-01 04:00:00 20.9 17 Sudoeste 22 Sudoeste 0 -- -- 62
2020-11-01 03:00:00 20.5 15 Sudoeste 28 Sudoeste 0 -- -- 63
2020-11-01 02:00:00 20.8 13 Sudoeste 18 Sudoeste 0 -- -- 59
2020-11-01 01:00:00 20.9 6 Sur 14 Sudoeste 0 -- -- 56
2020-11-01 00:00:00 20.8 7 Sudoeste 12 Sudoeste 0 -- -- 60
2020-10-31 23:00:00 20.4 5 Sur 11 Sudeste 0 -- -- 63
2020-10-31 22:00:00 20.7 7 Sudoeste 10 Sudoeste 0 -- -- 64
2020-10-31 21:00:00 20 4 Noroeste 9 Sudoeste 0 -- -- 64
2020-10-31 20:00:00 20.4 7 Sudeste 15 Sudeste 0 -- -- 63
2020-10-31 19:00:00 20.2 8 Sudoeste 17 Oeste 0 -- -- 69
2020-10-31 18:00:00 20 6 Sudoeste 21 Oeste 0 -- -- 69
2020-10-31 17:00:00 21 5 Noroeste 10 Oeste 0 -- -- 61
2020-10-31 16:00:00 22.1 4 Oeste 14 Sudoeste 0 -- -- 58
2020-10-31 15:00:00 23.1 4 Oeste 17 Sudoeste 0 -- -- 54
2020-10-31 14:00:00 23.3 4 Sudoeste 13 Sudoeste 0 -- -- 55
2020-10-31 13:00:00 22.1 5 Sur 19 Oeste 0 -- -- 55
2020-10-31 12:00:00 21.2 13 Sudoeste 19 Oeste 0 -- -- 49
2020-10-31 11:00:00 20.2 12 Sudoeste 17 Sudoeste 0 -- -- 51
2020-10-31 10:00:00 19 4 Sudeste 22 Sudoeste 0 -- -- 53
2020-10-31 09:00:00 19 13 Sudoeste 21 Sudoeste 0 -- -- 53
2020-10-31 08:00:00 18.4 11 Sur 15 Sur 0 -- -- 60
2020-10-31 07:00:00 16.1 5 Sur 15 Sudeste 0 -- -- 73
2020-10-31 06:00:00 16.5 4 Sudoeste 14 Oeste 0 -- -- 71
2020-10-31 05:00:00 13.7 11 Sudoeste 14 Oeste 0 -- -- 76
2020-10-31 04:00:00 15.2 10 Sudoeste 19 Sudoeste 0 -- -- 73
2020-10-31 03:00:00 13.2 17 Sudoeste 24 Sudoeste 0 -- -- 84
2020-10-31 02:00:00 14.2 13 Sur 23 Sudoeste 0 -- -- 79
2020-10-31 01:00:00 15.2 6 Sudeste 23 Sudeste 0 -- -- 77
2020-10-31 00:00:00 16.1 19 Sudeste 32 Sudeste 0 -- -- 70
2020-10-30 23:00:00 16.4 24 Sudeste 38 Sudeste 0 -- -- 64
2020-10-30 22:00:00 15.8 27 Sudeste 35 Sudeste 0 -- -- 73
2020-10-30 21:00:00 14.8 21 Sudeste 30 Sudeste 0 -- -- 93
2020-10-30 20:00:00 14.8 21 Este 30 Sudeste 0 -- -- 94
2020-10-30 19:00:00 15 21 Sudeste 28 Sudeste 0 -- -- 96
2020-10-30 18:00:00 15.1 16 Sudeste 23 Sudeste 0 -- -- 94
2020-10-30 17:00:00 15.8 14 Este 19 Este 0 -- -- 92
2020-10-30 16:00:00 16.2 16 Sudeste 21 Sudeste 0 -- -- 88
2020-10-30 15:00:00 16.1 19 Sudeste 26 Sudeste 0 -- -- 84
2020-10-30 14:00:00 16.6 16 Sudeste 21 Sudeste 0 -- -- 78
2020-10-30 13:00:00 16.6 11 Este 15 Sudeste 0 -- -- 81
2020-10-30 12:00:00 16.3 3 Nordeste 12 Sudeste 0 -- -- 81
2020-10-30 11:00:00 16.5 3 Sudeste 12 Sudeste 0 -- -- 75
2020-10-30 10:00:00 14.8 4 Sur 13 Sudoeste 0 -- -- 77
2020-10-30 09:00:00 13 5 Sur 13 Sur 0 -- -- 86
2020-10-30 08:00:00 13.3 0 Calma 6 Sudoeste 0 -- -- 86
2020-10-30 07:00:00 12.9 2 Sur 6 Sudoeste 0 -- -- 90
2020-10-30 06:00:00 13.4 5 Sudoeste 11 Sudoeste 0 -- -- 85
2020-10-30 05:00:00 12.3 8 Sur 14 Sudoeste 0 -- -- 90
2020-10-30 04:00:00 12.3 5 Sur 13 Sudeste 0 -- -- 90
2020-10-30 03:00:00 13.9 11 Sudeste 14 Sudeste 0 -- -- 85
2020-10-30 02:00:00 13.5 12 Sudeste 16 Sudeste 0 -- -- 86
2020-10-30 01:00:00 13.8 13 Sudeste 20 Sudeste 0 -- -- 86
2020-10-30 00:00:00 13.7 15 Sudeste 22 Sudeste 0 -- -- 87
2020-10-29 23:00:00 13.3 13 Sudeste 18 Sudeste 0 -- -- 91
2020-10-29 22:00:00 13.8 15 Sudeste 23 Este 0 -- -- 91
2020-10-29 21:00:00 14.4 17 Este 24 Sudeste 0 -- -- 84
2020-10-29 20:00:00 14.5 15 Este 23 Este 0 -- -- 84
2020-10-29 19:00:00 14.2 14 Este 21 Este 0 -- -- 80
2020-10-29 18:00:00 14.2 12 Este 18 Este 0 -- -- 77
2020-10-29 17:00:00 15.2 10 Este 14 Este 0 -- -- 76
2020-10-29 16:00:00 15.4 8 Este 14 Sudeste 0 -- -- 76
2020-10-29 15:00:00 16 2 Este 11 Este 0 -- -- 71
2020-10-29 14:00:00 15.9 8 Este 11 Este 0 -- -- 70
2020-10-29 13:00:00 16 5 Este 10 Este 0 -- -- 75
2020-10-29 12:00:00 16.2 3 Sudeste 9 Este 0 -- -- 76
2020-10-29 11:00:00 15.8 5 Sudoeste 11 Sudoeste 0 -- -- 72
2020-10-29 10:00:00 15.1 4 Sur 10 Sudoeste 0 -- -- 71
2020-10-29 09:00:00 13.5 9 Sudoeste 15 Sudoeste 0 -- -- 76
2020-10-29 08:00:00 12.5 8 Sudoeste 17 Sudoeste 0 -- -- 77
2020-10-29 07:00:00 12.3 14 Sudoeste 20 Sudoeste 0 -- -- 79
2020-10-29 06:00:00 13.1 16 Sudoeste 23 Sudoeste 0 -- -- 77
2020-10-29 05:00:00 12.6 15 Sudoeste 21 Sudoeste 0 -- -- 79
2020-10-29 04:00:00 12.4 14 Sudoeste 21 Oeste 0 -- -- 83
2020-10-29 03:00:00 13.6 15 Sudoeste 24 Oeste 0 -- -- 82
2020-10-29 02:00:00 13.5 9 Sudoeste 18 Oeste 0 -- -- 88
2020-10-29 01:00:00 14 11 Sudoeste 17 Oeste 0 -- -- 87
2020-10-29 00:00:00 13.9 4 Oeste 9 Noroeste 0 -- -- 94
2020-10-28 23:00:00 14.3 2 Sudoeste 10 Sur 0 -- -- 88
2020-10-28 22:00:00 13.6 6 Sur 18 Oeste 0 -- -- 95
2020-10-28 21:00:00 15 9 Sudoeste 23 Oeste 0 -- -- 93
2020-10-28 20:00:00 15.2 9 Noroeste 38 Noroeste 0 -- -- 91
2020-10-28 19:00:00 15.5 18 Noroeste 31 Noroeste 0 -- -- 87
2020-10-28 18:00:00 15.7 20 Noroeste 37 Noroeste 0 -- -- 81
2020-10-28 17:00:00 16.3 21 Noroeste 37 Norte 0 -- -- 77
2020-10-28 16:00:00 16.9 9 Noroeste 32 Oeste 0 -- -- 74
2020-10-28 15:00:00 16.5 15 Noroeste 40 Oeste 0 -- -- 71
2020-10-28 14:00:00 16.8 17 Oeste 46 Oeste 0 -- -- 66
2020-10-28 13:00:00 17 15 Oeste 33 Oeste 0 -- -- 63
2020-10-28 12:00:00 17.9 20 Sudoeste 33 Sudoeste 0 -- -- 54
2020-10-28 11:00:00 16.3 20 Sudoeste 40 Sudoeste 0 -- -- 55
2020-10-28 10:00:00 15.6 22 Oeste 49 Oeste 0 -- -- 59
2020-10-28 09:00:00 15.3 30 Oeste 45 Oeste 0 -- -- 63
2020-10-28 08:00:00 15.4 24 Oeste 44 Sudoeste 0 -- -- 66
2020-10-28 07:00:00 15 22 Oeste 44 Oeste 0 -- -- 71
2020-10-28 06:00:00 15.2 25 Oeste 47 Sudoeste 0 -- -- 71
2020-10-28 05:00:00 14.7 19 Oeste 36 Oeste 0 -- -- 88
2020-10-28 04:00:00 14.4 14 Noroeste 41 Oeste 0 -- -- 90
2020-10-28 03:00:00 15 18 Oeste 39 Oeste 0 -- -- 88
2020-10-28 02:00:00 15.1 16 Noroeste 48 Oeste 0 -- -- 85
2020-10-28 01:00:00 14.7 27 Oeste 51 Oeste 0 -- -- 86
2020-10-28 00:00:00 14.6 29 Oeste 51 Oeste 0 -- -- 92
2020-10-27 23:00:00 14.1 28 Oeste 53 Norte 0 -- -- 97
2020-10-27 22:00:00 15.1 24 Noroeste 51 Noroeste 0 -- -- 84
2020-10-27 21:00:00 15 25 Noroeste 50 Noroeste 0 -- -- 85
2020-10-27 20:00:00 14.7 20 Oeste 66 Noroeste 0 -- -- 95
2020-10-27 19:00:00 14.4 36 Noroeste 71 Noroeste 0 -- -- 97
2020-10-27 18:00:00 19.8 34 Sudoeste 54 Sudoeste 0 -- -- 58
2020-10-27 17:00:00 19.3 36 Sudoeste 61 Sudoeste 0 -- -- 60
2020-10-27 16:00:00 19.3 36 Sudoeste 50 Sudoeste 0 -- -- 60
2020-10-27 15:00:00 20.1 26 Sudoeste 50 Sudoeste 0 -- -- 56
2020-10-27 14:00:00 20.1 26 Sudoeste 50 Sudoeste 0 -- -- 56
2020-10-27 13:00:00 19.9 35 Sudoeste 51 Sudoeste 0 -- -- 56
2020-10-27 12:00:00 19.1 28 Sudoeste 42 Sudoeste 0 -- -- 60
2020-10-27 11:00:00 17 26 Sudoeste 46 Sudoeste 0 -- -- 66
2020-10-27 10:00:00 15.1 25 Sudoeste 41 Sudoeste 0.1 -- -- 72
2020-10-27 09:00:00 15.1 21 Sudoeste 36 Sudoeste 0 -- -- 66
2020-10-27 08:00:00 14.6 10 Sudoeste 25 Oeste 0 -- -- 70
2020-10-27 07:00:00 14.6 19 Sudoeste 33 Sudoeste 0 -- -- 69
2020-10-27 06:00:00 13.9 24 Sudoeste 36 Sudoeste 0 -- -- 70
2020-10-27 05:00:00 13.4 25 Sudoeste 35 Sudoeste 0.1 -- -- 74
2020-10-27 04:00:00 13.9 15 Sudoeste 34 Sudoeste 0 -- -- 70
2020-10-27 03:00:00 13.9 24 Sudoeste 36 Sudoeste 0 -- -- 69
2020-10-27 02:00:00 13.2 19 Sudoeste 34 Sudoeste 0 -- -- 70
2020-10-27 01:00:00 13.4 25 Sudoeste 37 Sudoeste 0 -- -- 70
2020-10-27 00:00:00 13 24 Sudoeste 40 Sudoeste 0 -- -- 69
2020-10-26 23:00:00 13 24 Sudoeste 33 Sudoeste 0 -- -- 69
2020-10-26 22:00:00 13 21 Sudoeste 32 Sudoeste 0 -- -- 69
2020-10-26 21:00:00 13.5 21 Sudoeste 43 Oeste 0 -- -- 71
2020-10-26 20:00:00 13.4 23 Oeste 60 Norte 0 -- -- 70
2020-10-26 19:00:00 14.1 35 Oeste 56 Oeste 0 -- -- 68
2020-10-26 18:00:00 13.6 31 Oeste 87 Oeste 0 -- -- 75
2020-10-26 17:00:00 14.2 35 Oeste 60 Oeste 0 -- -- 64
2020-10-26 16:00:00 13.5 32 Oeste 81 Sudoeste 0 -- -- 71
2020-10-26 15:00:00 14.8 30 Oeste 55 Oeste 0 -- -- 61
2020-10-26 14:00:00 14.6 31 Oeste 59 Oeste 0 -- -- 65
2020-10-26 13:00:00 14.3 33 Oeste 58 Oeste 0 -- -- 64
2020-10-26 12:00:00 13.6 33 Oeste 57 Oeste 0 -- -- 66
2020-10-26 11:00:00 13.9 29 Oeste 53 Oeste 0 -- -- 66
2020-10-26 10:00:00 13.1 28 Oeste 54 Oeste 0 -- -- 72
2020-10-26 09:00:00 12.1 26 Sudoeste 43 Sudoeste 0 -- -- 74
2020-10-26 08:00:00 11.5 28 Sudoeste 50 Oeste 0 -- -- 72
2020-10-26 07:00:00 10.6 27 Sudoeste 40 Sudoeste 0 -- -- 71
2020-10-26 06:00:00 10.8 30 Sudoeste 42 Sudoeste 0 -- -- 71
2020-10-26 05:00:00 11.3 26 Sudoeste 38 Sudoeste 0 -- -- 72
2020-10-26 04:00:00 10.9 26 Sudoeste 51 Sudoeste 0 -- -- 71
2020-10-26 03:00:00 11.4 25 Sudoeste 45 Sudoeste 0 -- -- 73
2020-10-26 02:00:00 10.3 24 Sudoeste 42 Sudoeste 0 -- -- 74
2020-10-26 01:00:00 11.1 27 Sudoeste 43 Sudoeste 0 -- -- 75
2020-10-26 00:00:00 11.6 26 Oeste 50 Oeste 0 -- -- 75